< < Back
Terminal Aerodrome Forecast


Current Version              Previous Versions:   1  2  3  4  5  6  7  8  9  

Terminal Aerodrome Forecast

380
FTUS42 KCHS 261725
TAFCHS
TAF
KCHS 261725Z 2618/2718 21008KT P6SM SCT020 SCT070
     FM262000 18012G18KT P6SM BKN060
     FM262300 19009KT P6SM BKN050
     FM270600 22007KT P6SM SCT015 OVC040
     FM271000 24008KT 5SM -SHRA SCT010 BKN035=

Latest METAR

813
SAUS80 KWBC 261900
MTRCHS
METAR KCHS 261856Z 19010G18KT 10SM SCT045 BKN250 26/14 A2990 RMK AO2
SLP123 T02560144


USA.gov is the U.S. government's official web portal to all federal, state and local government web resources and services.